createdAt,value
2023-08-08T00:03:00.647Z,3.5
2023-08-08T00:08:16.260Z,3.35
2023-08-08T00:13:33.660Z,3.43
2023-08-08T00:18:48.518Z,3.49
2023-08-08T00:24:04.056Z,3.43
2023-08-08T00:29:20.860Z,3.43
2023-08-08T00:34:38.927Z,3.3
2023-08-08T00:39:54.510Z,3.59
2023-08-08T00:45:10.033Z,3.43
2023-08-08T00:50:28.096Z,3.37
2023-08-08T00:55:43.589Z,3.4
2023-08-08T01:00:59.940Z,3.46
2023-08-08T01:06:14.700Z,3.42
2023-08-08T01:11:30.165Z,3.47
2023-08-08T01:16:47.287Z,3.44
2023-08-08T01:32:35.160Z,3.23
2023-08-08T01:37:50.344Z,3.42
2023-08-08T01:43:07.749Z,3.35
2023-08-08T01:48:24.523Z,3.64
2023-08-08T01:53:39.446Z,3.18
2023-08-08T01:58:55.674Z,3.3
2023-08-08T02:04:11.862Z,3.17
2023-08-08T02:09:29.868Z,3.27
2023-08-08T02:14:46.630Z,3.39
2023-08-08T02:20:02.139Z,3.12
2023-08-08T02:25:18.298Z,3.11
2023-08-08T02:30:33.825Z,3.16
2023-08-08T02:35:48.675Z,3.08
2023-08-08T02:41:04.268Z,3.35
2023-08-08T02:46:20.761Z,3.26
2023-08-08T02:51:36.541Z,3.17
2023-08-08T02:56:52.696Z,3.59
2023-08-08T03:02:10.738Z,3.46
2023-08-08T03:07:26.989Z,3.38
2023-08-08T03:12:43.840Z,3.37
2023-08-08T03:17:59.086Z,3.22
2023-08-08T03:23:15.425Z,3.41
2023-08-08T03:28:32.866Z,3.41
2023-08-08T03:33:49.894Z,3.38
2023-08-08T03:39:05.171Z,3.26
2023-08-08T03:44:22.031Z,3.29
2023-08-08T03:49:37.516Z,3.59
2023-08-08T03:54:54.359Z,3.46
2023-08-08T04:00:09.950Z,3.44
2023-08-08T04:05:26.820Z,3.44
2023-08-08T04:10:42.864Z,3.46
2023-08-08T04:15:59.573Z,3.43
2023-08-08T04:21:14.510Z,3.54
2023-08-08T04:26:30.133Z,3.55
2023-08-08T04:31:47.458Z,3.5
2023-08-08T04:37:04.351Z,3.27
2023-08-08T04:42:20.420Z,3.28
2023-08-08T05:13:54.172Z,3.31
2023-08-08T05:19:12.862Z,3.34
2023-08-08T05:24:28.381Z,3.61
2023-08-08T05:29:43.289Z,3.46
2023-08-08T05:34:58.186Z,3.38
2023-08-08T05:40:13.797Z,3.43
2023-08-08T05:45:28.657Z,3.46
2023-08-08T05:50:45.352Z,3.58
2023-08-08T05:56:00.963Z,3.41
2023-08-08T06:01:18.474Z,3.61
2023-08-08T06:32:58.794Z,3.79
2023-08-08T06:38:15.570Z,3.64
2023-08-08T06:43:31.548Z,3.79
2023-08-08T06:48:47.094Z,3.85
2023-08-08T06:54:01.839Z,3.94
2023-08-08T06:59:17.468Z,3.7
2023-08-08T07:04:33.518Z,3.79
2023-08-08T07:09:49.043Z,3.77
2023-08-08T07:15:03.356Z,3.85
2023-08-08T07:20:18.812Z,3.92
2023-08-08T07:25:33.014Z,3.8
2023-08-08T07:30:48.145Z,3.92
2023-08-08T07:36:04.086Z,3.84
2023-08-08T07:41:21.519Z,3.75
2023-08-08T07:46:41.115Z,3.8
2023-08-08T07:51:56.431Z,3.78
2023-08-08T07:57:13.209Z,3.66
2023-08-08T08:02:33.740Z,3.69
2023-08-08T08:07:50.172Z,3.82
2023-08-08T08:13:04.855Z,3.74
2023-08-08T08:18:21.039Z,3.79
2023-08-08T08:23:37.217Z,3.6
2023-08-08T08:28:53.430Z,3.7
2023-08-08T08:34:09.528Z,3.63
2023-08-08T08:39:25.131Z,3.83
2023-08-08T08:44:43.879Z,3.64
2023-08-08T09:37:27.308Z,3.56
2023-08-08T09:42:35.729Z,3.72
2023-08-08T09:47:52.144Z,3.47
2023-08-08T09:53:07.189Z,3.49
2023-08-08T09:58:23.587Z,3.65
2023-08-08T10:03:39.886Z,3.52
2023-08-08T10:08:54.024Z,3.59
2023-08-08T10:14:10.768Z,3.48
2023-08-08T10:19:28.207Z,3.66
2023-08-08T10:24:46.446Z,3.68
2023-08-08T10:30:03.828Z,3.5
2023-08-08T10:35:20.534Z,3.51
2023-08-08T10:40:35.433Z,3.48
2023-08-08T10:46:14.845Z,3.54
2023-08-08T10:51:10.304Z,3.7
2023-08-08T10:56:25.869Z,3.65
2023-08-08T11:01:42.021Z,3.6
2023-08-08T11:06:57.584Z,3.74
2023-08-08T11:08:43.126Z,3.94
2023-08-08T11:13:59.909Z,3.74
2023-08-08T11:19:18.178Z,3.79
2023-08-08T11:24:34.781Z,3.67
2023-08-08T11:29:50.483Z,3.69
2023-08-08T11:35:09.726Z,3.74
2023-08-08T11:40:24.569Z,3.67
2023-08-08T11:48:51.060Z,3.75
2023-08-08T11:57:28.923Z,3.51
2023-08-08T12:03:09.498Z,3.58
2023-08-08T12:08:24.556Z,3.5
2023-08-08T12:13:39.497Z,3.71
2023-08-08T12:18:55.646Z,3.51
2023-08-08T12:24:09.229Z,3.47
2023-08-08T12:29:24.070Z,3.71
2023-08-08T12:34:41.480Z,3.52
2023-08-08T12:39:57.671Z,3.56
2023-08-08T12:45:13.197Z,3.55
2023-08-08T12:50:29.325Z,3.29
2023-08-08T12:55:45.501Z,3.47
2023-08-08T13:01:01.190Z,3.66
2023-08-08T13:06:17.797Z,3.64
2023-08-08T13:11:33.316Z,3.69
2023-08-08T13:16:50.306Z,3.7
2023-08-08T13:22:07.620Z,3.8
2023-08-08T13:27:22.474Z,3.81
2023-08-08T13:32:38.196Z,3.76
2023-08-08T13:37:54.189Z,3.85
2023-08-08T13:43:09.647Z,3.73
2023-08-08T13:48:24.555Z,3.79
2023-08-08T13:53:40.144Z,3.8
2023-08-08T13:58:56.869Z,3.74
2023-08-08T14:04:14.343Z,3.85
2023-08-08T14:09:29.214Z,3.76
2023-08-08T14:14:47.259Z,3.67
2023-08-08T14:20:01.587Z,3.69
2023-08-08T14:25:16.504Z,3.66
2023-08-08T14:30:31.238Z,3.7
2023-08-08T14:35:48.688Z,3.74
2023-08-08T14:41:03.560Z,3.55
2023-08-08T14:46:19.465Z,3.71
2023-08-08T14:51:35.883Z,3.83
2023-08-08T14:56:50.773Z,3.7
2023-08-08T15:02:05.986Z,3.56
2023-08-08T15:07:21.154Z,3.45
2023-08-08T15:12:38.133Z,3.3
2023-08-08T15:23:12.974Z,3.54
2023-08-08T15:28:28.436Z,3.41
2023-08-08T15:33:45.287Z,3.62
2023-08-08T15:39:01.850Z,3.43
2023-08-08T15:44:18.142Z,3.68
2023-08-08T15:49:32.423Z,3.51
2023-08-08T15:54:47.898Z,3.54
2023-08-08T16:00:04.047Z,3.46
2023-08-08T16:05:20.882Z,3.45
2023-08-08T16:10:34.498Z,3.83
2023-08-08T16:15:49.327Z,3.51
2023-08-08T16:21:05.503Z,3.65
2023-08-08T16:26:24.229Z,3.43
2023-08-08T16:31:39.325Z,3.52
2023-08-08T16:36:57.176Z,3.51
2023-08-08T16:42:16.622Z,3.71
2023-08-08T16:47:26.924Z,3.51
2023-08-08T16:52:42.494Z,3.41
2023-08-08T16:58:00.622Z,3.56
2023-08-08T17:03:18.979Z,3.59
2023-08-08T17:08:33.520Z,3.57
2023-08-08T17:13:49.050Z,3.52
2023-08-08T17:19:05.346Z,3.64
2023-08-08T17:24:41.093Z,3.36
2023-08-08T17:29:35.624Z,3.45
2023-08-08T17:34:53.665Z,3.51
2023-08-08T17:40:10.636Z,3.55
2023-08-08T17:45:26.041Z,3.57
2023-08-08T17:50:45.983Z,3.5
2023-08-08T17:56:02.798Z,3.52
2023-08-08T18:01:20.383Z,3.65
2023-08-08T18:06:35.106Z,3.4
2023-08-08T18:11:50.626Z,3.66
2023-08-08T18:17:07.439Z,3.68
2023-08-08T18:22:22.338Z,3.62
2023-08-08T18:27:38.486Z,3.64
2023-08-08T18:32:55.091Z,3.57
2023-08-08T18:38:09.506Z,3.56
2023-08-08T18:43:26.958Z,3.71
2023-08-08T18:48:40.582Z,3.75
2023-08-08T18:53:57.382Z,3.64
2023-08-08T18:59:12.878Z,3.74
2023-08-08T19:04:29.011Z,3.68
2023-08-08T19:09:44.585Z,3.59
2023-08-08T19:15:01.312Z,3.67
2023-08-08T19:20:17.508Z,3.59
2023-08-08T19:25:34.286Z,3.6
2023-08-08T19:30:49.201Z,3.7
2023-08-08T19:36:06.655Z,3.64
2023-08-08T19:41:21.493Z,3.69
2023-08-08T19:46:38.294Z,3.64
2023-08-08T19:51:54.492Z,3.74
2023-08-08T19:57:10.638Z,3.72
2023-08-08T20:02:25.686Z,3.61
2023-08-08T20:07:40.503Z,3.66
2023-08-08T20:12:55.894Z,3.69
2023-08-08T20:18:12.689Z,3.56
2023-08-08T20:23:27.558Z,3.63
2023-08-08T20:28:43.751Z,3.5
2023-08-08T20:34:00.608Z,3.68
2023-08-08T20:39:20.133Z,3.58
2023-08-08T20:44:29.677Z,3.54
2023-08-08T20:49:45.846Z,3.59
2023-08-08T20:55:02.028Z,3.37
2023-08-08T21:00:18.774Z,3.54
2023-08-08T21:05:35.005Z,3.7
2023-08-08T21:10:51.126Z,3.6
2023-08-08T21:16:06.031Z,3.68
2023-08-08T21:21:22.166Z,3.7
2023-08-08T21:26:40.733Z,3.81
2023-08-08T21:31:53.931Z,3.77
2023-08-08T21:37:10.609Z,3.78
2023-08-08T21:42:24.907Z,3.82
2023-08-08T21:47:41.365Z,3.74
2023-08-08T21:52:55.899Z,3.71
2023-08-08T21:58:12.730Z,3.73
2023-08-08T22:03:26.364Z,3.9
2023-08-08T22:08:44.342Z,3.75
2023-08-08T22:14:02.356Z,3.84
2023-08-08T22:19:13.500Z,3.74
2023-08-08T22:24:28.414Z,3.75
2023-08-08T22:29:45.179Z,3.75
2023-08-08T22:35:01.348Z,3.53
2023-08-08T22:40:19.427Z,3.74
2023-08-08T22:59:53.843Z,3.65
2023-08-08T23:05:09.401Z,3.74
2023-08-08T23:10:24.901Z,3.55
2023-08-08T23:15:42.289Z,3.52
2023-08-08T23:20:57.235Z,3.39
2023-08-08T23:26:12.711Z,3.45
2023-08-08T23:31:29.208Z,3.46
2023-08-08T23:36:44.380Z,3.45
2023-08-08T23:42:00.564Z,3.78
2023-08-08T23:47:16.771Z,3.61
2023-08-08T23:52:31.634Z,3.57
2023-08-08T23:57:47.216Z,3.85
